createdAt,value
2022-09-18T00:01:32.413Z,100.00
2022-09-18T00:04:02.742Z,100.00
2022-09-18T00:06:32.280Z,100.00
2022-09-18T00:09:02.888Z,100.00
2022-09-18T00:11:38.495Z,100.00
2022-09-18T00:14:08.006Z,100.00
2022-09-18T00:16:36.791Z,100.00
2022-09-18T00:19:07.424Z,100.00
2022-09-18T00:21:37.498Z,100.00
2022-09-18T00:24:07.306Z,100.00
2022-09-18T00:26:36.710Z,100.00
2022-09-18T00:29:05.829Z,100.00
2022-09-18T00:31:36.510Z,100.00
2022-09-18T00:34:07.803Z,100.00
2022-09-18T00:36:36.586Z,100.00
2022-09-18T00:39:05.270Z,100.00
2022-09-18T00:41:36.099Z,100.00
2022-09-18T00:44:35.399Z,100.00
2022-09-18T00:47:16.172Z,100.00
2022-09-18T00:49:47.331Z,100.00
2022-09-18T00:52:18.075Z,100.00
2022-09-18T00:54:49.555Z,100.00
2022-09-18T00:57:20.360Z,100.00
2022-09-18T00:59:51.005Z,100.00
2022-09-18T01:02:19.447Z,100.00
2022-09-18T01:04:48.432Z,100.00
2022-09-18T01:07:29.223Z,100.00
2022-09-18T01:10:07.278Z,100.00
2022-09-18T01:12:46.924Z,100.00
2022-09-18T01:15:26.888Z,100.00
2022-09-18T01:18:04.934Z,100.00
2022-09-18T01:20:56.690Z,100.00
2022-09-18T01:23:51.926Z,100.00
2022-09-18T01:26:29.858Z,100.00
2022-09-18T01:29:04.966Z,100.00
2022-09-18T01:31:39.836Z,100.00
2022-09-18T01:34:14.836Z,100.00
2022-09-18T01:36:50.172Z,100.00
2022-09-18T01:39:24.042Z,100.00
2022-09-18T01:41:53.176Z,100.00
2022-09-18T01:44:27.687Z,100.00
2022-09-18T01:46:59.799Z,100.00
2022-09-18T01:49:34.314Z,100.00
2022-09-18T01:52:08.681Z,100.00
2022-09-18T01:54:46.175Z,100.00
2022-09-18T01:57:20.811Z,100.00
2022-09-18T01:59:57.208Z,100.00
2022-09-18T02:02:31.179Z,100.00
2022-09-18T02:05:02.198Z,100.00
2022-09-18T02:07:37.078Z,100.00
2022-09-18T02:10:07.334Z,100.00
2022-09-18T02:12:37.546Z,100.00
2022-09-18T02:15:12.877Z,100.00
2022-09-18T02:17:44.808Z,100.00
2022-09-18T02:20:19.938Z,100.00
2022-09-18T02:22:52.766Z,100.00
2022-09-18T02:25:25.392Z,100.00
2022-09-18T02:27:55.979Z,100.00
2022-09-18T02:30:27.068Z,100.00
2022-09-18T02:32:56.273Z,100.00
2022-09-18T02:35:29.077Z,100.00
2022-09-18T02:38:05.754Z,100.00
2022-09-18T02:40:44.732Z,100.00
2022-09-18T02:43:25.247Z,100.00
2022-09-18T02:46:05.061Z,100.00
2022-09-18T02:48:49.114Z,100.00
2022-09-18T02:51:28.622Z,100.00
2022-09-18T02:54:03.771Z,100.00
2022-09-18T02:56:40.630Z,100.00
2022-09-18T02:59:14.468Z,100.00
2022-09-18T03:01:46.694Z,100.00
2022-09-18T03:04:20.988Z,100.00
2022-09-18T03:06:49.021Z,100.00
2022-09-18T03:09:17.238Z,100.00
2022-09-18T03:11:45.584Z,100.00
2022-09-18T03:14:13.998Z,100.00
2022-09-18T03:16:43.603Z,100.00
2022-09-18T03:19:11.944Z,100.00
2022-09-18T03:21:40.185Z,100.00
2022-09-18T03:24:08.964Z,100.00
2022-09-18T03:26:37.302Z,100.00
2022-09-18T03:29:09.789Z,100.00
2022-09-18T03:31:38.112Z,100.00
2022-09-18T03:34:08.124Z,100.00
2022-09-18T03:36:36.394Z,100.00
2022-09-18T03:39:05.053Z,100.00
2022-09-18T03:41:33.567Z,100.00
2022-09-18T03:44:01.642Z,100.00
2022-09-18T03:46:29.679Z,100.00
2022-09-18T03:48:58.099Z,100.00
2022-09-18T03:51:27.631Z,100.00
2022-09-18T03:53:55.813Z,100.00
2022-09-18T03:56:23.830Z,100.00
2022-09-18T03:58:53.344Z,100.00
2022-09-18T04:01:21.576Z,100.00
2022-09-18T04:03:49.889Z,100.00
2022-09-18T04:06:17.956Z,100.00
2022-09-18T04:08:47.405Z,100.00
2022-09-18T04:11:15.390Z,100.00
2022-09-18T04:13:43.363Z,100.00
2022-09-18T04:16:11.462Z,100.00
2022-09-18T04:18:39.536Z,100.00
2022-09-18T04:21:07.721Z,100.00
2022-09-18T04:23:35.762Z,100.00
2022-09-18T04:26:09.968Z,100.00
2022-09-18T04:28:39.120Z,100.00
2022-09-18T04:31:07.565Z,100.00
2022-09-18T04:33:35.674Z,100.00
2022-09-18T04:36:03.962Z,100.00
2022-09-18T04:38:32.140Z,100.00
2022-09-18T04:41:01.447Z,100.00
2022-09-18T04:43:30.838Z,100.00
2022-09-18T04:45:59.776Z,100.00
2022-09-18T04:48:27.932Z,100.00
2022-09-18T04:50:56.067Z,100.00
2022-09-18T04:53:24.036Z,100.00
2022-09-18T04:55:52.282Z,99.19
2022-09-18T04:58:21.109Z,97.16
2022-09-18T05:00:51.270Z,96.82
2022-09-18T05:03:19.547Z,94.11
2022-09-18T05:05:48.411Z,95.51
2022-09-18T05:08:16.413Z,95.58
2022-09-18T05:10:44.581Z,94.03
2022-09-18T05:13:12.655Z,93.55
2022-09-18T05:15:40.906Z,95.36
2022-09-18T05:18:12.700Z,96.65
2022-09-18T05:20:40.875Z,95.76
2022-09-18T05:23:08.900Z,95.10
2022-09-18T05:25:37.020Z,96.09
2022-09-18T05:28:05.931Z,96.48
2022-09-18T05:30:34.106Z,97.25
2022-09-18T05:33:03.763Z,95.64
2022-09-18T05:35:34.879Z,92.22
2022-09-18T05:38:04.136Z,92.05
2022-09-18T05:40:35.121Z,91.90
2022-09-18T05:43:04.079Z,91.30
2022-09-18T05:45:32.548Z,91.13
2022-09-18T05:48:03.354Z,87.30
2022-09-18T05:50:33.139Z,87.73
2022-09-18T05:53:01.878Z,90.09
2022-09-18T05:55:31.980Z,87.95
2022-09-18T05:58:03.633Z,87.20
2022-09-18T06:00:33.849Z,85.00
2022-09-18T06:03:03.995Z,84.41
2022-09-18T06:05:35.341Z,84.30
2022-09-18T06:08:04.398Z,82.91
2022-09-18T06:10:34.663Z,83.54
2022-09-18T06:13:03.661Z,82.89
2022-09-18T06:15:32.259Z,81.90
2022-09-18T06:18:00.614Z,80.22
2022-09-18T06:20:28.883Z,79.31
2022-09-18T06:23:01.870Z,78.54
2022-09-18T06:25:30.598Z,79.13
2022-09-18T06:28:00.334Z,79.11
2022-09-18T06:30:30.201Z,78.03
2022-09-18T06:33:02.976Z,75.80
2022-09-18T06:35:31.431Z,76.60
2022-09-18T06:38:03.991Z,75.33
2022-09-18T06:40:33.103Z,76.71
2022-09-18T06:43:02.833Z,77.19
2022-09-18T06:45:32.163Z,74.29
2022-09-18T06:48:02.892Z,75.05
2022-09-18T06:50:31.014Z,73.37
2022-09-18T06:53:07.655Z,73.34
2022-09-18T06:55:38.211Z,72.72
2022-09-18T06:58:06.424Z,74.12
2022-09-18T07:00:34.619Z,75.54
2022-09-18T07:03:03.978Z,74.67
2022-09-18T07:05:34.147Z,73.37
2022-09-18T07:08:04.060Z,73.62
2022-09-18T07:10:32.053Z,74.42
2022-09-18T07:13:02.355Z,76.42
2022-09-18T07:15:30.613Z,76.46
2022-09-18T07:18:00.269Z,75.12
2022-09-18T07:20:29.597Z,76.76
2022-09-18T07:23:17.897Z,77.13
2022-09-18T07:25:46.811Z,77.46
2022-09-18T07:28:14.985Z,79.58
2022-09-18T07:30:43.343Z,77.99
2022-09-18T07:33:11.982Z,77.57
2022-09-18T07:35:40.689Z,77.38
2022-09-18T07:38:09.289Z,75.72
2022-09-18T07:40:40.549Z,76.44
2022-09-18T07:43:11.329Z,77.99
2022-09-18T07:45:39.962Z,77.56
2022-09-18T07:48:09.381Z,77.50
2022-09-18T07:50:37.866Z,75.32
2022-09-18T07:53:07.999Z,76.26
2022-09-18T07:55:38.181Z,75.97
2022-09-18T07:58:08.405Z,76.48
2022-09-18T08:00:38.221Z,77.43
2022-09-18T08:03:07.918Z,78.28
2022-09-18T08:05:36.435Z,77.26
2022-09-18T08:08:05.385Z,79.07
2022-09-18T08:10:35.413Z,76.84
2022-09-18T08:13:05.325Z,76.73
2022-09-18T08:15:35.090Z,77.55
2022-09-18T08:18:03.075Z,74.91
2022-09-18T08:20:31.296Z,74.25
2022-09-18T08:22:59.519Z,73.52
2022-09-18T08:25:28.588Z,72.13
2022-09-18T08:28:00.362Z,72.93
2022-09-18T08:30:30.820Z,73.12
2022-09-18T08:33:00.644Z,72.59
2022-09-18T08:35:28.996Z,73.95
2022-09-18T08:37:58.245Z,73.70
2022-09-18T08:40:42.393Z,72.33
2022-09-18T08:43:20.669Z,70.68
2022-09-18T08:45:58.684Z,69.35
2022-09-18T08:48:30.924Z,67.30
2022-09-18T08:51:05.036Z,65.79
2022-09-18T08:53:37.770Z,64.80
2022-09-18T08:56:08.870Z,65.63
2022-09-18T08:58:43.803Z,66.70
2022-09-18T09:01:19.184Z,66.26
2022-09-18T09:03:57.176Z,64.80
2022-09-18T09:06:42.509Z,64.14
2022-09-18T09:09:29.161Z,63.98
2022-09-18T09:12:04.650Z,63.18
2022-09-18T09:14:58.146Z,64.31
2022-09-18T09:17:40.085Z,62.42
2022-09-18T09:20:21.439Z,59.99
2022-09-18T09:22:57.985Z,56.67
2022-09-18T09:25:34.038Z,54.78
2022-09-18T09:28:16.199Z,53.55
2022-09-18T09:30:48.479Z,54.59
2022-09-18T09:33:23.419Z,53.34
2022-09-18T09:35:56.148Z,52.29
2022-09-18T09:38:36.685Z,51.57
2022-09-18T09:41:14.997Z,51.60
2022-09-18T09:43:50.709Z,51.42
2022-09-18T09:46:30.022Z,50.79
2022-09-18T09:49:06.805Z,50.16
2022-09-18T09:51:46.223Z,50.24
2022-09-18T09:54:14.335Z,50.55
2022-09-18T09:56:52.391Z,49.08
2022-09-18T09:59:28.581Z,49.58
2022-09-18T10:02:01.754Z,49.89
2022-09-18T10:04:39.210Z,50.74
2022-09-18T10:07:16.502Z,50.61
2022-09-18T10:09:49.931Z,50.98
2022-09-18T10:12:27.089Z,51.52
2022-09-18T10:15:06.645Z,51.01
2022-09-18T10:17:39.442Z,50.83
2022-09-18T10:20:16.559Z,51.08
2022-09-18T10:22:44.710Z,50.75
2022-09-18T10:25:21.935Z,50.00
2022-09-18T10:27:49.945Z,50.16
2022-09-18T10:30:18.358Z,49.45
2022-09-18T10:32:46.488Z,49.22
2022-09-18T10:35:50.117Z,49.80
2022-09-18T10:38:34.398Z,49.56
2022-09-18T10:41:28.124Z,48.70
2022-09-18T10:44:00.705Z,47.96
2022-09-18T10:46:34.569Z,47.72
2022-09-18T10:49:18.644Z,48.75
2022-09-18T10:51:46.869Z,47.97
2022-09-18T10:54:23.234Z,45.95
2022-09-18T10:56:51.666Z,46.28
2022-09-18T10:59:35.059Z,45.56
2022-09-18T11:02:07.014Z,45.35
2022-09-18T11:04:35.814Z,46.61
2022-09-18T11:07:07.641Z,45.97
2022-09-18T11:09:41.432Z,46.04
2022-09-18T11:12:19.030Z,46.76
2022-09-18T11:14:51.655Z,46.83
2022-09-18T11:17:26.034Z,47.37
2022-09-18T11:19:57.615Z,45.22
2022-09-18T11:22:40.330Z,46.12
2022-09-18T11:25:19.763Z,45.71
2022-09-18T11:27:51.191Z,45.04
2022-09-18T11:30:24.265Z,44.30
2022-09-18T11:32:55.741Z,44.15
2022-09-18T11:35:23.981Z,44.68
2022-09-18T11:37:54.720Z,46.24
2022-09-18T11:40:27.211Z,45.30
2022-09-18T11:42:56.340Z,44.87
2022-09-18T11:45:36.764Z,45.38
2022-09-18T11:48:14.977Z,44.96
2022-09-18T11:50:43.273Z,44.53
2022-09-18T11:53:16.039Z,44.59
2022-09-18T11:55:49.755Z,44.71
2022-09-18T11:58:23.440Z,44.42
2022-09-18T12:01:07.993Z,44.72
2022-09-18T12:03:42.419Z,44.37
2022-09-18T12:06:16.625Z,44.86
2022-09-18T12:08:51.254Z,44.79
2022-09-18T12:11:31.949Z,44.54
2022-09-18T12:14:09.184Z,44.56
2022-09-18T12:16:46.235Z,44.53
2022-09-18T12:19:21.062Z,44.73
2022-09-18T12:21:56.542Z,44.03
2022-09-18T12:24:24.747Z,44.09
2022-09-18T12:27:13.201Z,43.70
2022-09-18T12:30:06.424Z,44.40
2022-09-18T12:33:07.441Z,43.16
2022-09-18T12:35:47.891Z,42.54
2022-09-18T12:38:34.689Z,43.18
2022-09-18T12:41:27.345Z,42.49
2022-09-18T12:44:29.156Z,43.45
2022-09-18T12:47:13.743Z,43.21
2022-09-18T12:50:17.827Z,42.17
2022-09-18T12:53:08.676Z,42.12
2022-09-18T12:56:03.297Z,41.71
2022-09-18T12:59:15.605Z,41.08
2022-09-18T13:01:50.198Z,41.32
2022-09-18T13:04:25.148Z,40.64
2022-09-18T13:06:58.068Z,41.25
2022-09-18T13:09:31.268Z,41.14
2022-09-18T13:12:03.219Z,41.24
2022-09-18T13:14:37.571Z,41.64
2022-09-18T13:17:16.795Z,42.09
2022-09-18T13:19:50.754Z,41.60
2022-09-18T13:22:21.291Z,42.21
2022-09-18T13:24:55.768Z,41.04
2022-09-18T13:27:26.207Z,41.86
2022-09-18T13:30:00.610Z,41.77
2022-09-18T13:32:43.544Z,42.90
2022-09-18T13:35:29.818Z,42.21
2022-09-18T13:38:07.919Z,42.24
2022-09-18T13:40:39.334Z,43.10
2022-09-18T13:43:25.400Z,43.09
2022-09-18T13:45:54.618Z,42.62
2022-09-18T13:48:29.841Z,42.19
2022-09-18T13:51:00.771Z,42.33
2022-09-18T13:53:34.951Z,41.78
2022-09-18T13:56:04.290Z,41.67
2022-09-18T13:58:54.506Z,42.13
2022-09-18T14:02:04.073Z,41.74
2022-09-18T14:05:02.362Z,42.75
2022-09-18T14:07:54.727Z,43.13
2022-09-18T14:10:27.164Z,43.28
2022-09-18T14:13:30.484Z,43.34
2022-09-18T14:16:06.080Z,43.51
2022-09-18T14:18:38.819Z,41.90
2022-09-18T14:21:28.528Z,41.44
2022-09-18T14:24:23.388Z,41.60
2022-09-18T14:27:26.226Z,41.63
2022-09-18T14:29:59.688Z,41.86
2022-09-18T14:32:29.546Z,41.94
2022-09-18T14:35:20.665Z,41.83
2022-09-18T14:37:50.164Z,40.60
2022-09-18T14:40:24.889Z,40.78
2022-09-18T14:42:53.322Z,41.78
2022-09-18T14:45:29.887Z,41.89
2022-09-18T14:47:59.191Z,42.36
2022-09-18T14:50:37.781Z,42.71
2022-09-18T14:53:21.708Z,42.38
2022-09-18T14:55:53.576Z,42.31
2022-09-18T14:58:24.953Z,42.28
2022-09-18T15:00:55.522Z,42.15
2022-09-18T15:03:27.432Z,42.25
2022-09-18T15:06:06.798Z,42.54
2022-09-18T15:08:39.006Z,42.72
2022-09-18T15:11:07.669Z,43.04
2022-09-18T15:13:38.833Z,41.73
2022-09-18T15:16:07.633Z,40.91
2022-09-18T15:18:42.965Z,41.88
2022-09-18T15:21:24.469Z,42.38
2022-09-18T15:23:56.046Z,43.49
2022-09-18T15:26:29.145Z,44.08
2022-09-18T15:28:58.440Z,43.08
2022-09-18T15:31:31.544Z,42.74
2022-09-18T15:34:04.399Z,41.46
2022-09-18T15:36:35.617Z,42.85
2022-09-18T15:39:06.159Z,42.52
2022-09-18T15:41:42.634Z,43.25
2022-09-18T15:45:10.248Z,43.71
2022-09-18T15:47:40.832Z,44.09
2022-09-18T15:50:44.957Z,43.53
2022-09-18T15:53:23.329Z,44.14
2022-09-18T15:56:05.222Z,44.30
2022-09-18T15:58:38.708Z,44.27
2022-09-18T16:01:09.321Z,44.46
2022-09-18T16:03:42.642Z,44.38
2022-09-18T16:06:23.899Z,44.20
2022-09-18T16:08:55.569Z,43.87
2022-09-18T16:11:47.508Z,43.93
2022-09-18T16:14:44.369Z,43.77
2022-09-18T16:17:36.996Z,44.25
2022-09-18T16:20:30.518Z,44.60
2022-09-18T16:23:05.948Z,44.35
2022-09-18T16:25:37.969Z,44.90
2022-09-18T16:28:24.219Z,45.25
2022-09-18T16:30:53.060Z,45.25
2022-09-18T16:33:23.667Z,45.58
2022-09-18T16:35:57.715Z,46.20
2022-09-18T16:38:25.700Z,46.23
2022-09-18T16:40:55.083Z,46.80
2022-09-18T16:43:24.651Z,46.56
2022-09-18T16:45:52.871Z,46.93
2022-09-18T16:48:21.130Z,46.85
2022-09-18T16:50:49.829Z,47.32
2022-09-18T16:53:17.807Z,47.43
2022-09-18T16:55:48.705Z,47.41
2022-09-18T16:58:20.073Z,47.65
2022-09-18T17:00:49.764Z,47.96
2022-09-18T17:03:19.222Z,47.91
2022-09-18T17:05:47.572Z,48.21
2022-09-18T17:08:15.872Z,48.02
2022-09-18T17:10:45.327Z,48.23
2022-09-18T17:13:14.135Z,49.08
2022-09-18T17:15:42.361Z,48.32
2022-09-18T17:18:11.777Z,48.73
2022-09-18T17:20:40.105Z,48.69
2022-09-18T17:23:08.327Z,48.88
2022-09-18T17:25:37.223Z,48.69
2022-09-18T17:28:05.380Z,48.84
2022-09-18T17:30:33.490Z,48.86
2022-09-18T17:33:02.154Z,49.19
2022-09-18T17:35:31.719Z,49.25
2022-09-18T17:38:00.161Z,49.77
2022-09-18T17:40:28.528Z,50.29
2022-09-18T17:42:56.755Z,49.92
2022-09-18T17:45:24.824Z,50.52
2022-09-18T17:47:55.012Z,50.20
2022-09-18T17:50:24.817Z,50.37
2022-09-18T17:52:54.647Z,50.89
2022-09-18T17:55:22.830Z,51.50
2022-09-18T17:57:53.082Z,51.21
2022-09-18T18:00:21.849Z,51.20
2022-09-18T18:02:50.245Z,51.64
2022-09-18T18:05:19.334Z,52.03
2022-09-18T18:07:47.400Z,51.62
2022-09-18T18:10:16.930Z,51.94
2022-09-18T18:12:45.502Z,51.69
2022-09-18T18:15:13.896Z,51.87
2022-09-18T18:17:43.073Z,51.69
2022-09-18T18:20:11.796Z,52.05
2022-09-18T18:22:39.999Z,51.69
2022-09-18T18:25:09.768Z,52.04
2022-09-18T18:27:39.290Z,51.33
2022-09-18T18:30:08.925Z,51.06
2022-09-18T18:32:37.012Z,50.71
2022-09-18T18:35:05.950Z,51.08
2022-09-18T18:37:34.099Z,51.25
2022-09-18T18:40:02.285Z,50.89
2022-09-18T18:42:30.419Z,51.32
2022-09-18T18:45:01.145Z,50.71
2022-09-18T18:47:29.947Z,50.84
2022-09-18T18:49:58.221Z,50.70
2022-09-18T18:52:26.680Z,50.65
2022-09-18T18:54:54.862Z,50.77
2022-09-18T18:57:23.246Z,50.85
2022-09-18T18:59:51.518Z,50.77
2022-09-18T19:02:21.476Z,51.14
2022-09-18T19:04:49.682Z,51.25
2022-09-18T19:07:17.737Z,51.38
2022-09-18T19:09:45.804Z,51.68
2022-09-18T19:12:14.262Z,50.88
2022-09-18T19:14:42.491Z,51.28
2022-09-18T19:17:11.073Z,51.05
2022-09-18T19:19:40.908Z,51.00
2022-09-18T19:22:15.287Z,51.53
2022-09-18T19:24:44.042Z,51.80
2022-09-18T19:27:12.681Z,52.33
2022-09-18T19:29:40.769Z,52.22
2022-09-18T19:32:09.256Z,52.81
2022-09-18T19:34:37.502Z,52.63
2022-09-18T19:37:11.727Z,52.51
2022-09-18T19:39:40.882Z,52.95
2022-09-18T19:42:14.945Z,52.74
2022-09-18T19:44:46.922Z,52.77
2022-09-18T19:47:18.654Z,53.27
2022-09-18T19:49:47.164Z,53.09
2022-09-18T19:52:19.271Z,53.15
2022-09-18T19:54:48.444Z,52.92
2022-09-18T19:57:16.711Z,52.58
2022-09-18T19:59:45.146Z,52.82
2022-09-18T20:02:14.932Z,51.98
2022-09-18T20:04:44.506Z,51.82
2022-09-18T20:07:13.096Z,52.19
2022-09-18T20:09:45.977Z,51.85
2022-09-18T20:12:14.831Z,51.81
2022-09-18T20:14:42.846Z,52.20
2022-09-18T20:17:11.321Z,52.35
2022-09-18T20:19:39.411Z,52.13
2022-09-18T20:22:08.387Z,51.73
2022-09-18T20:24:36.680Z,51.19
2022-09-18T20:27:12.660Z,51.28
2022-09-18T20:29:41.746Z,51.07
2022-09-18T20:32:10.183Z,50.66
2022-09-18T20:34:38.413Z,50.38
2022-09-18T20:37:07.329Z,49.96
2022-09-18T20:39:35.319Z,50.47
2022-09-18T20:42:03.759Z,49.91
2022-09-18T20:44:35.125Z,49.78
2022-09-18T20:47:03.380Z,50.17
2022-09-18T20:49:32.170Z,50.17
2022-09-18T20:52:03.701Z,50.64
2022-09-18T20:54:31.867Z,50.59
2022-09-18T20:57:01.410Z,50.70
2022-09-18T20:59:29.530Z,51.25
2022-09-18T21:01:59.555Z,50.76
2022-09-18T21:04:27.663Z,50.89
2022-09-18T21:06:56.681Z,50.84
2022-09-18T21:09:27.439Z,50.44
2022-09-18T21:11:57.597Z,50.19
2022-09-18T21:14:27.522Z,50.25
2022-09-18T21:16:56.057Z,50.50
2022-09-18T21:19:27.276Z,50.59
2022-09-18T21:21:56.690Z,50.41
2022-09-18T21:24:25.782Z,50.07
2022-09-18T21:26:53.830Z,49.60
2022-09-18T21:29:25.192Z,49.58
2022-09-18T21:31:55.209Z,49.78
2022-09-18T21:34:27.074Z,49.56
2022-09-18T21:36:57.842Z,49.81
2022-09-18T21:39:28.236Z,50.00
2022-09-18T21:41:56.368Z,49.71
2022-09-18T21:44:27.305Z,50.45
2022-09-18T21:46:56.623Z,50.35
2022-09-18T21:49:27.822Z,50.76
2022-09-18T21:51:57.788Z,50.86
2022-09-18T21:54:26.387Z,51.00
2022-09-18T21:56:55.543Z,51.01
2022-09-18T21:59:26.547Z,50.68
2022-09-18T22:01:55.664Z,50.27
2022-09-18T22:04:27.852Z,49.88
2022-09-18T22:06:58.381Z,49.81
2022-09-18T22:09:28.929Z,49.18
2022-09-18T22:11:58.023Z,49.20
2022-09-18T22:14:32.153Z,48.10
2022-09-18T22:17:01.667Z,48.62
2022-09-18T22:19:33.216Z,48.63
2022-09-18T22:22:01.886Z,48.14
2022-09-18T22:24:30.847Z,48.57
2022-09-18T22:27:02.596Z,49.24
2022-09-18T22:29:32.919Z,49.60
2022-09-18T22:32:02.199Z,49.37
2022-09-18T22:34:34.946Z,49.25
2022-09-18T22:37:03.600Z,49.08
2022-09-18T22:39:31.703Z,49.30
2022-09-18T22:41:59.880Z,49.29
2022-09-18T22:44:27.946Z,49.65
2022-09-18T22:46:55.933Z,50.09
2022-09-18T22:49:24.704Z,50.44
2022-09-18T22:51:54.175Z,51.14
2022-09-18T22:54:26.457Z,50.65
2022-09-18T22:56:56.657Z,51.30
2022-09-18T22:59:26.563Z,51.74
2022-09-18T23:01:57.698Z,51.71
2022-09-18T23:04:29.871Z,52.80
2022-09-18T23:07:00.438Z,52.94
2022-09-18T23:09:29.298Z,53.92
2022-09-18T23:11:59.010Z,55.17
2022-09-18T23:14:29.043Z,56.17
2022-09-18T23:16:58.436Z,56.68
2022-09-18T23:19:28.062Z,57.59
2022-09-18T23:21:57.522Z,58.59
2022-09-18T23:24:27.765Z,59.16
2022-09-18T23:26:58.954Z,59.62
2022-09-18T23:29:28.750Z,59.89
2022-09-18T23:31:57.698Z,60.37
2022-09-18T23:34:28.930Z,60.06
2022-09-18T23:36:58.217Z,60.19
2022-09-18T23:39:29.911Z,60.32
2022-09-18T23:41:59.415Z,60.26
2022-09-18T23:44:31.192Z,59.72
2022-09-18T23:47:00.151Z,60.41
2022-09-18T23:49:28.636Z,60.11
2022-09-18T23:51:57.442Z,60.69
2022-09-18T23:54:28.053Z,59.79
2022-09-18T23:56:56.706Z,61.30
2022-09-18T23:59:26.427Z,59.93
